createdAt,value
2018-08-14T00:00:35.338Z,22.70
2018-08-14T00:03:08.699Z,22.70
2018-08-14T00:05:37.614Z,22.70
2018-08-14T00:08:06.778Z,22.80
2018-08-14T00:10:35.787Z,22.80
2018-08-14T00:13:07.555Z,22.80
2018-08-14T00:15:36.608Z,22.80
2018-08-14T00:18:06.262Z,22.80
2018-08-14T00:20:35.114Z,22.70
2018-08-14T00:23:04.148Z,22.70
2018-08-14T00:25:33.151Z,22.70
2018-08-14T00:28:02.122Z,22.70
2018-08-14T00:30:32.943Z,22.70
2018-08-14T00:33:01.987Z,22.70
2018-08-14T00:35:30.943Z,22.70
2018-08-14T00:37:59.805Z,22.70
2018-08-14T00:40:30.176Z,22.70
2018-08-14T00:43:02.559Z,22.70
2018-08-14T00:45:31.478Z,22.70
2018-08-14T00:48:00.439Z,22.70
2018-08-14T00:50:29.576Z,22.70
2018-08-14T00:52:58.518Z,22.70
2018-08-14T00:55:27.491Z,22.70
2018-08-14T00:57:56.439Z,22.70
2018-08-14T01:00:33.551Z,22.70
2018-08-14T01:03:02.591Z,22.70
2018-08-14T01:05:31.468Z,22.70
2018-08-14T01:08:00.406Z,22.70
2018-08-14T01:10:29.250Z,22.70
2018-08-14T01:12:58.619Z,22.70
2018-08-14T01:15:29.263Z,22.60
2018-08-14T01:17:58.588Z,22.60
2018-08-14T01:20:29.438Z,22.60
2018-08-14T01:23:00.056Z,22.60
2018-08-14T01:25:30.543Z,22.50
2018-08-14T01:27:59.436Z,22.50
2018-08-14T01:30:29.986Z,22.50
2018-08-14T01:32:59.283Z,22.40
2018-08-14T01:35:28.364Z,22.40
2018-08-14T01:37:57.191Z,22.40
2018-08-14T01:40:26.163Z,22.30
2018-08-14T01:42:55.055Z,22.30
2018-08-14T01:45:24.047Z,22.20
2018-08-14T01:47:52.974Z,22.20
2018-08-14T01:50:24.563Z,22.20
2018-08-14T01:52:53.556Z,22.20
2018-08-14T01:55:23.606Z,22.20
2018-08-14T01:57:53.789Z,22.10
2018-08-14T02:00:24.170Z,22.10
2018-08-14T02:02:53.222Z,22.10
2018-08-14T02:05:22.230Z,22.10
2018-08-14T02:07:51.150Z,22.10
2018-08-14T02:10:22.360Z,22.10
2018-08-14T02:12:51.283Z,22.00
2018-08-14T02:15:20.249Z,22.00
2018-08-14T02:17:49.135Z,21.90
2018-08-14T02:20:23.191Z,22.00
2018-08-14T02:22:55.012Z,21.90
2018-08-14T02:25:24.001Z,21.90
2018-08-14T02:27:53.162Z,21.90
2018-08-14T02:30:22.125Z,21.90
2018-08-14T02:32:51.099Z,21.90
2018-08-14T02:35:20.100Z,21.90
2018-08-14T02:37:49.039Z,21.80
2018-08-14T02:40:20.295Z,21.80
2018-08-14T02:42:50.529Z,21.80
2018-08-14T02:45:19.738Z,21.70
2018-08-14T02:47:48.611Z,21.70
2018-08-14T02:50:17.539Z,21.70
2018-08-14T02:52:47.508Z,21.70
2018-08-14T02:55:22.265Z,21.70
2018-08-14T02:57:51.177Z,21.70
2018-08-14T03:00:27.032Z,21.70
2018-08-14T03:02:56.614Z,21.60
2018-08-14T03:05:25.795Z,21.60
2018-08-14T03:07:54.764Z,21.60
2018-08-14T03:10:23.661Z,21.60
2018-08-14T03:12:52.673Z,21.50
2018-08-14T03:15:22.274Z,21.50
2018-08-14T03:17:53.435Z,21.40
2018-08-14T03:20:22.438Z,21.40
2018-08-14T03:22:51.843Z,21.50
2018-08-14T03:25:20.787Z,21.40
2018-08-14T03:27:50.215Z,21.40
2018-08-14T03:30:19.200Z,21.40
2018-08-14T03:32:48.191Z,21.30
2018-08-14T03:35:17.127Z,21.30
2018-08-14T03:37:46.043Z,21.30
2018-08-14T03:40:18.884Z,21.30
2018-08-14T03:42:48.674Z,21.30
2018-08-14T03:45:17.790Z,21.30
2018-08-14T03:47:46.716Z,21.30
2018-08-14T03:50:15.678Z,21.30
2018-08-14T03:52:44.766Z,21.30
2018-08-14T03:55:16.099Z,21.30
2018-08-14T03:57:45.054Z,21.30
2018-08-14T04:00:16.159Z,21.30
2018-08-14T04:02:45.499Z,21.30
2018-08-14T04:05:14.982Z,21.40
2018-08-14T04:07:44.454Z,21.40
2018-08-14T04:10:13.875Z,21.40
2018-08-14T04:12:42.823Z,21.50
2018-08-14T04:15:12.967Z,21.50
2018-08-14T04:17:41.922Z,21.50
2018-08-14T04:20:12.138Z,21.60
2018-08-14T04:22:41.366Z,21.50
2018-08-14T04:25:11.009Z,21.50
2018-08-14T04:27:40.191Z,21.50
2018-08-14T04:30:12.087Z,21.50
2018-08-14T04:32:42.375Z,21.60
2018-08-14T04:35:11.331Z,21.60
2018-08-14T04:37:40.174Z,21.60
2018-08-14T04:40:10.503Z,21.60
2018-08-14T04:42:39.430Z,21.50
2018-08-14T04:45:08.863Z,21.60
2018-08-14T04:47:38.191Z,21.50
2018-08-14T04:50:09.510Z,21.60
2018-08-14T04:52:38.456Z,21.60
2018-08-14T04:55:08.531Z,21.60
2018-08-14T04:57:37.496Z,21.50
2018-08-14T05:00:10.606Z,21.50
2018-08-14T05:02:39.519Z,21.50
2018-08-14T05:05:10.330Z,21.50
2018-08-14T05:07:39.652Z,21.50
2018-08-14T05:10:11.062Z,21.60
2018-08-14T05:12:39.985Z,21.60
2018-08-14T05:15:09.496Z,21.60
2018-08-14T05:17:38.498Z,21.60
2018-08-14T05:20:09.742Z,21.60
2018-08-14T05:22:38.927Z,21.70
2018-08-14T05:25:08.224Z,21.60
2018-08-14T05:27:37.547Z,21.70
2018-08-14T05:30:11.727Z,21.70
2018-08-14T05:32:40.653Z,21.70
2018-08-14T05:35:09.658Z,21.70
2018-08-14T05:37:38.595Z,21.80
2018-08-14T05:40:08.342Z,21.80
2018-08-14T05:42:37.574Z,21.80
2018-08-14T05:45:08.556Z,21.70
2018-08-14T05:47:37.669Z,21.80
2018-08-14T05:50:07.614Z,21.70
2018-08-14T05:52:36.507Z,21.70
2018-08-14T05:55:05.540Z,21.70
2018-08-14T05:57:34.414Z,21.80
2018-08-14T06:00:04.331Z,21.80
2018-08-14T06:02:33.301Z,21.80
2018-08-14T06:05:02.231Z,21.80
2018-08-14T06:07:31.119Z,21.80
2018-08-14T06:10:00.081Z,21.80
2018-08-14T06:12:28.971Z,21.80
2018-08-14T06:14:57.936Z,21.80
2018-08-14T06:17:26.835Z,21.90
2018-08-14T06:19:56.690Z,21.90
2018-08-14T06:22:25.612Z,21.90
2018-08-14T06:24:54.604Z,21.90
2018-08-14T06:27:23.532Z,21.90
2018-08-14T06:29:52.470Z,21.90
2018-08-14T06:32:21.368Z,21.90
2018-08-14T06:34:50.292Z,21.90
2018-08-14T06:37:19.187Z,21.90
2018-08-14T06:39:48.147Z,21.90
2018-08-14T06:42:17.049Z,21.90
2018-08-14T06:44:46.003Z,21.90
2018-08-14T06:47:14.934Z,21.90
2018-08-14T06:49:43.800Z,22.00
2018-08-14T06:52:12.723Z,22.00
2018-08-14T06:54:41.848Z,22.00
2018-08-14T06:57:10.752Z,22.00
2018-08-14T06:59:39.676Z,22.00
2018-08-14T07:02:08.647Z,22.00
2018-08-14T07:04:37.595Z,21.90
2018-08-14T07:07:06.553Z,21.90
2018-08-14T07:09:35.553Z,21.90
2018-08-14T07:12:04.592Z,21.90
2018-08-14T07:14:33.675Z,21.90
2018-08-14T07:17:02.569Z,21.90
2018-08-14T07:19:31.521Z,21.90
2018-08-14T07:22:00.414Z,21.90
2018-08-14T07:24:29.270Z,21.80
2018-08-14T07:26:58.152Z,21.80
2018-08-14T07:29:27.152Z,21.90
2018-08-14T07:31:56.049Z,21.90
2018-08-14T07:34:25.027Z,21.90
2018-08-14T07:36:53.911Z,21.90
2018-08-14T07:39:22.848Z,21.90
2018-08-14T07:41:51.686Z,21.90
2018-08-14T07:44:20.607Z,21.90
2018-08-14T07:46:49.628Z,21.90
2018-08-14T07:49:18.573Z,21.90
2018-08-14T07:51:47.463Z,21.90
2018-08-14T07:54:16.459Z,21.80
2018-08-14T07:56:45.375Z,21.90
2018-08-14T07:59:14.237Z,21.90
2018-08-14T08:01:43.203Z,21.90
2018-08-14T08:04:12.231Z,21.90
2018-08-14T08:06:41.071Z,21.90
2018-08-14T08:09:12.654Z,21.90
2018-08-14T08:11:41.859Z,21.90
2018-08-14T08:14:10.840Z,21.90
2018-08-14T08:16:39.756Z,21.80
2018-08-14T08:19:08.680Z,21.80
2018-08-14T08:21:37.567Z,21.70
2018-08-14T08:24:06.482Z,21.70
2018-08-14T08:26:35.426Z,21.70
2018-08-14T08:29:04.371Z,21.70
2018-08-14T08:31:33.399Z,21.70
2018-08-14T08:34:02.337Z,21.70
2018-08-14T08:36:31.291Z,21.60
2018-08-14T08:39:00.267Z,21.60
2018-08-14T08:41:29.219Z,21.50
2018-08-14T08:43:58.130Z,21.50
2018-08-14T08:46:27.063Z,21.50
2018-08-14T08:48:56.004Z,21.50
2018-08-14T08:51:24.878Z,21.50
2018-08-14T08:53:53.792Z,21.50
2018-08-14T08:56:22.763Z,21.40
2018-08-14T08:58:51.655Z,21.40
2018-08-14T09:01:20.584Z,21.40
2018-08-14T09:03:49.554Z,21.40
2018-08-14T09:06:18.556Z,21.40
2018-08-14T09:08:47.552Z,21.40
2018-08-14T09:11:16.462Z,21.40
2018-08-14T09:13:45.512Z,21.40
2018-08-14T09:16:14.492Z,21.40
2018-08-14T09:18:43.428Z,21.30
2018-08-14T09:21:12.303Z,21.30
2018-08-14T09:23:41.260Z,21.40
2018-08-14T09:26:10.138Z,21.40
2018-08-14T09:28:39.039Z,21.30
2018-08-14T09:31:07.886Z,21.40
2018-08-14T09:33:36.925Z,21.30
2018-08-14T09:36:06.084Z,21.30
2018-08-14T09:38:35.068Z,21.30
2018-08-14T09:41:04.083Z,21.30
2018-08-14T09:43:33.036Z,21.30
2018-08-14T09:46:02.056Z,21.30
2018-08-14T09:48:31.020Z,21.20
2018-08-14T09:50:59.975Z,21.30
2018-08-14T09:53:28.987Z,21.20
2018-08-14T09:55:57.940Z,21.20
2018-08-14T09:58:26.910Z,21.20
2018-08-14T10:01:01.525Z,21.10
2018-08-14T10:03:36.016Z,21.10
2018-08-14T10:06:10.664Z,21.10
2018-08-14T10:08:39.714Z,21.20
2018-08-14T10:11:08.602Z,21.20
2018-08-14T10:13:37.671Z,21.30
2018-08-14T10:16:06.713Z,21.30
2018-08-14T10:18:35.683Z,21.30
2018-08-14T10:21:04.600Z,21.30
2018-08-14T10:23:33.584Z,21.30
2018-08-14T10:26:02.564Z,21.40
2018-08-14T10:28:31.690Z,21.40
2018-08-14T10:31:00.665Z,21.40
2018-08-14T10:33:29.842Z,21.30
2018-08-14T10:35:58.890Z,21.30
2018-08-14T10:38:27.855Z,21.30
2018-08-14T10:40:58.060Z,21.40
2018-08-14T10:43:27.096Z,21.40
2018-08-14T10:45:56.108Z,21.30
2018-08-14T10:48:25.039Z,21.30
2018-08-14T10:50:53.972Z,21.30
2018-08-14T10:53:22.936Z,21.30
2018-08-14T10:55:51.884Z,21.30
2018-08-14T10:58:20.792Z,21.30
2018-08-14T11:00:49.659Z,21.40
2018-08-14T11:03:18.679Z,21.40
2018-08-14T11:05:47.544Z,21.40
2018-08-14T11:08:16.444Z,21.30
2018-08-14T11:10:50.897Z,21.30
2018-08-14T11:13:19.934Z,21.30
2018-08-14T11:15:48.891Z,21.30
2018-08-14T11:18:17.771Z,21.30
2018-08-14T11:20:46.716Z,21.30
2018-08-14T11:23:15.740Z,21.20
2018-08-14T11:25:44.666Z,21.20
2018-08-14T11:28:13.602Z,21.20
2018-08-14T11:30:42.543Z,21.20
2018-08-14T11:33:11.544Z,21.20
2018-08-14T11:35:46.053Z,21.30
2018-08-14T11:38:14.991Z,21.10
2018-08-14T11:40:43.876Z,21.10
2018-08-14T11:43:12.947Z,21.20
2018-08-14T11:45:41.804Z,21.10
2018-08-14T11:48:10.687Z,21.00
2018-08-14T11:50:39.562Z,20.90
2018-08-14T11:53:08.555Z,20.90
2018-08-14T11:55:37.575Z,20.90
2018-08-14T11:58:06.574Z,20.80
2018-08-14T12:00:35.528Z,20.80
2018-08-14T12:03:06.159Z,20.70
2018-08-14T12:05:35.599Z,20.80
2018-08-14T12:08:04.638Z,21.00
2018-08-14T12:10:33.613Z,20.90
2018-08-14T12:13:02.662Z,20.70
2018-08-14T12:15:31.535Z,20.60
2018-08-14T12:18:00.404Z,20.60
2018-08-14T12:20:29.363Z,20.60
2018-08-14T12:22:58.299Z,20.70
2018-08-14T12:25:27.146Z,20.70
2018-08-14T12:27:56.039Z,20.70
2018-08-14T12:30:25.012Z,20.80
2018-08-14T12:32:53.978Z,20.70
2018-08-14T12:35:22.915Z,20.80
2018-08-14T12:37:51.775Z,20.70
2018-08-14T12:40:20.673Z,20.80
2018-08-14T12:42:49.699Z,20.90
2018-08-14T12:45:21.563Z,20.80
2018-08-14T12:47:51.487Z,20.70
2018-08-14T12:50:21.444Z,20.70
2018-08-14T12:52:50.700Z,20.70
2018-08-14T12:55:19.864Z,20.90
2018-08-14T12:57:49.140Z,20.90
2018-08-14T13:00:24.682Z,20.90
2018-08-14T13:02:53.646Z,20.90
2018-08-14T13:05:23.359Z,20.90
2018-08-14T13:07:52.552Z,21.00
2018-08-14T13:10:21.430Z,21.20
2018-08-14T13:12:50.411Z,21.20
2018-08-14T13:15:19.472Z,21.30
2018-08-14T13:18:08.180Z,21.40
2018-08-14T13:20:37.223Z,21.40
2018-08-14T13:23:08.828Z,21.40
2018-08-14T13:25:37.830Z,21.40
2018-08-14T13:28:07.635Z,21.30
2018-08-14T13:30:36.614Z,21.30
2018-08-14T13:33:05.639Z,21.40
2018-08-14T13:35:34.784Z,21.40
2018-08-14T13:38:03.731Z,21.50
2018-08-14T13:40:32.730Z,21.60
2018-08-14T13:43:01.788Z,21.70
2018-08-14T13:45:30.746Z,21.90
2018-08-14T13:47:59.717Z,22.10
2018-08-14T13:50:28.599Z,22.20
2018-08-14T13:52:57.631Z,22.20
2018-08-14T13:55:26.600Z,22.20
2018-08-14T13:57:55.479Z,22.20
2018-08-14T14:00:27.315Z,22.10
2018-08-14T14:02:56.441Z,22.10
2018-08-14T14:05:25.458Z,22.10
2018-08-14T14:07:54.424Z,22.00
2018-08-14T14:10:23.593Z,22.00
2018-08-14T14:12:52.533Z,22.00
2018-08-14T14:15:23.607Z,22.10
2018-08-14T14:17:53.645Z,22.10
2018-08-14T14:20:24.975Z,22.10
2018-08-14T14:22:53.926Z,22.10
2018-08-14T14:25:22.876Z,22.10
2018-08-14T14:27:51.835Z,22.20
2018-08-14T14:30:20.802Z,22.20
2018-08-14T14:32:49.796Z,22.30
2018-08-14T14:35:18.717Z,22.20
2018-08-14T14:37:47.623Z,22.20
2018-08-14T14:40:21.842Z,22.20
2018-08-14T14:42:53.119Z,22.30
2018-08-14T14:45:22.115Z,22.30
2018-08-14T14:47:51.088Z,22.30
2018-08-14T14:50:20.003Z,22.30
2018-08-14T14:52:49.047Z,22.40
2018-08-14T14:55:20.232Z,22.40
2018-08-14T14:57:49.464Z,22.40
2018-08-14T15:00:35.450Z,22.40
2018-08-14T15:03:06.174Z,22.40
2018-08-14T15:05:35.045Z,22.30
2018-08-14T15:08:04.297Z,22.30
2018-08-14T15:10:33.205Z,22.30
2018-08-14T15:13:02.114Z,22.40
2018-08-14T15:15:30.996Z,22.40
2018-08-14T15:17:59.834Z,22.40
2018-08-14T15:20:28.748Z,22.50
2018-08-14T15:22:58.475Z,22.50
2018-08-14T15:25:28.343Z,22.50
2018-08-14T15:29:20.883Z,22.50
2018-08-14T15:31:59.583Z,22.40
2018-08-14T15:34:30.949Z,22.40
2018-08-14T15:37:02.474Z,22.40
2018-08-14T15:39:31.413Z,22.30
2018-08-14T15:42:01.074Z,22.20
2018-08-14T15:44:30.044Z,22.20
2018-08-14T15:46:58.958Z,22.20
2018-08-14T15:49:28.014Z,22.20
2018-08-14T15:51:56.791Z,22.30
2018-08-14T15:54:25.808Z,22.30
2018-08-14T15:56:54.751Z,22.20
2018-08-14T15:59:23.912Z,22.10
2018-08-14T16:01:52.807Z,22.10
2018-08-14T16:04:21.796Z,22.10
2018-08-14T16:06:50.774Z,22.10
2018-08-14T16:09:21.123Z,22.10
2018-08-14T16:11:50.555Z,22.00
2018-08-14T16:14:19.582Z,21.90
2018-08-14T16:16:48.546Z,22.00
2018-08-14T16:19:17.841Z,22.10
2018-08-14T16:21:47.155Z,22.10
2018-08-14T16:24:17.647Z,22.10
2018-08-14T16:26:46.619Z,22.10
2018-08-14T16:29:15.496Z,22.10
2018-08-14T16:31:44.497Z,22.10
2018-08-14T16:34:13.455Z,22.10
2018-08-14T16:36:42.389Z,22.00
2018-08-14T16:39:12.431Z,22.00
2018-08-14T16:41:41.723Z,22.00
2018-08-14T16:44:10.832Z,22.00
2018-08-14T16:46:39.710Z,22.10
2018-08-14T16:49:08.818Z,22.10
2018-08-14T16:51:37.722Z,22.10
2018-08-14T16:54:06.738Z,22.10
2018-08-14T16:56:35.573Z,22.10
2018-08-14T16:59:04.511Z,22.10
2018-08-14T17:01:33.535Z,22.20
2018-08-14T17:04:03.488Z,22.20
2018-08-14T17:06:32.366Z,22.20
2018-08-14T17:09:01.257Z,22.10
2018-08-14T17:11:30.121Z,22.10
2018-08-14T17:13:59.059Z,22.10
2018-08-14T17:16:28.022Z,22.10
2018-08-14T17:18:56.932Z,22.10
2018-08-14T17:21:24.090Z,22.00
2018-08-14T17:23:53.055Z,22.10
2018-08-14T17:26:21.936Z,22.00
2018-08-14T17:28:50.826Z,22.00
2018-08-14T17:31:19.719Z,22.00
2018-08-14T17:33:48.590Z,22.00
2018-08-14T17:36:17.476Z,22.00
2018-08-14T17:38:46.349Z,22.00
2018-08-14T17:41:15.312Z,22.00
2018-08-14T17:43:44.239Z,21.90
2018-08-14T17:46:13.154Z,21.90
2018-08-14T17:48:42.083Z,21.90
2018-08-14T17:51:10.943Z,21.90
2018-08-14T17:53:39.880Z,21.90
2018-08-14T17:56:08.752Z,21.90
2018-08-14T17:58:37.670Z,21.90
2018-08-14T18:01:06.559Z,21.90
2018-08-14T18:03:35.519Z,21.90
2018-08-14T18:06:04.407Z,21.90
2018-08-14T18:08:33.250Z,22.00
2018-08-14T18:11:02.147Z,21.90
2018-08-14T18:13:31.084Z,21.90
2018-08-14T18:15:59.958Z,21.90
2018-08-14T18:18:28.868Z,22.00
2018-08-14T18:20:57.815Z,21.90
2018-08-14T18:23:26.751Z,21.90
2018-08-14T18:25:55.620Z,21.90
2018-08-14T18:28:24.601Z,21.90
2018-08-14T18:30:53.517Z,21.90
2018-08-14T18:33:22.468Z,21.80
2018-08-14T18:35:51.351Z,21.90
2018-08-14T18:38:21.203Z,21.80
2018-08-14T18:40:50.141Z,21.80
2018-08-14T18:43:19.168Z,21.80
2018-08-14T18:45:48.098Z,21.80
2018-08-14T18:48:17.027Z,21.70
2018-08-14T18:50:45.950Z,21.70
2018-08-14T18:53:14.874Z,21.70
2018-08-14T18:55:43.840Z,21.70
2018-08-14T18:58:12.979Z,21.70
2018-08-14T19:00:41.888Z,21.70
2018-08-14T19:03:10.864Z,21.60
2018-08-14T19:05:39.876Z,21.60
2018-08-14T19:08:09.154Z,21.60
2018-08-14T19:10:38.031Z,21.60
2018-08-14T19:13:07.138Z,21.60
2018-08-14T19:15:37.351Z,21.60
2018-08-14T19:18:09.100Z,21.50
2018-08-14T19:20:40.209Z,21.50
2018-08-14T19:23:09.167Z,21.40
2018-08-14T19:25:38.084Z,21.40
2018-08-14T19:28:07.008Z,21.40
2018-08-14T19:30:35.948Z,21.40
2018-08-14T19:33:05.016Z,21.40
2018-08-14T19:35:34.547Z,21.40
2018-08-14T19:38:03.463Z,21.40
2018-08-14T19:40:33.567Z,21.40
2018-08-14T19:43:02.613Z,21.40
2018-08-14T19:45:31.531Z,21.30
2018-08-14T19:48:01.504Z,21.30
2018-08-14T19:50:30.512Z,21.30
2018-08-14T19:52:59.687Z,21.20
2018-08-14T19:55:29.307Z,21.20
2018-08-14T19:57:58.756Z,21.20
2018-08-14T20:00:28.588Z,21.20
2018-08-14T20:02:58.056Z,21.10
2018-08-14T20:05:27.148Z,21.10
2018-08-14T20:07:57.029Z,21.10
2018-08-14T20:10:26.045Z,21.10
2018-08-14T20:12:55.836Z,21.00
2018-08-14T20:15:30.365Z,20.90
2018-08-14T20:17:59.324Z,20.90
2018-08-14T20:20:28.233Z,20.90
2018-08-14T20:22:57.926Z,20.90
2018-08-14T20:25:27.003Z,21.00
2018-08-14T20:27:56.681Z,20.90
2018-08-14T20:30:25.675Z,20.90
2018-08-14T20:32:55.096Z,20.80
2018-08-14T20:35:24.591Z,20.80
2018-08-14T20:37:53.739Z,20.80
2018-08-14T20:40:23.209Z,20.80
2018-08-14T20:42:52.208Z,20.80
2018-08-14T20:45:21.602Z,20.80
2018-08-14T20:47:50.848Z,20.80
2018-08-14T20:50:19.960Z,20.70
2018-08-14T20:52:48.899Z,20.70
2018-08-14T20:55:21.005Z,20.70
2018-08-14T20:57:50.207Z,20.70
2018-08-14T21:00:23.869Z,20.60
2018-08-14T21:02:53.546Z,20.50
2018-08-14T21:05:24.353Z,20.50
2018-08-14T21:07:53.646Z,20.50
2018-08-14T21:10:22.656Z,20.60
2018-08-14T21:12:51.539Z,20.50
2018-08-14T21:16:25.662Z,20.40
2018-08-14T21:18:56.814Z,20.40
2018-08-14T21:21:26.257Z,20.40
2018-08-14T21:23:55.367Z,20.40
2018-08-14T21:26:24.611Z,20.40
2018-08-14T21:28:53.595Z,20.40
2018-08-14T21:31:22.491Z,20.50
2018-08-14T21:33:51.442Z,20.40
2018-08-14T21:36:20.436Z,20.40
2018-08-14T21:38:49.299Z,20.40
2018-08-14T21:41:18.178Z,20.40
2018-08-14T21:43:47.197Z,20.40
2018-08-14T21:46:16.098Z,20.40
2018-08-14T21:48:45.019Z,20.40
2018-08-14T21:51:13.952Z,20.40
2018-08-14T21:53:42.948Z,20.40
2018-08-14T21:56:11.939Z,20.30
2018-08-14T21:58:40.856Z,20.30
2018-08-14T22:01:11.031Z,20.40
2018-08-14T22:03:44.138Z,20.40
2018-08-14T22:06:14.039Z,20.30
2018-08-14T22:08:43.071Z,20.30
2018-08-14T22:11:12.083Z,20.20
2018-08-14T22:13:41.115Z,20.20
2018-08-14T22:16:10.071Z,20.30
2018-08-14T22:18:39.052Z,20.30
2018-08-14T22:21:07.986Z,20.30
2018-08-14T22:23:37.019Z,20.30
2018-08-14T22:26:05.958Z,20.20
2018-08-14T22:28:34.812Z,20.20
2018-08-14T22:31:03.814Z,20.20
2018-08-14T22:33:32.763Z,20.30
2018-08-14T22:36:01.699Z,20.20
2018-08-14T22:38:30.591Z,20.20
2018-08-14T22:40:59.469Z,20.20
2018-08-14T22:43:28.450Z,20.20
2018-08-14T22:45:57.331Z,20.20
2018-08-14T22:48:26.274Z,20.20
2018-08-14T22:50:55.239Z,20.20
2018-08-14T22:54:27.468Z,20.20
2018-08-14T22:56:56.351Z,20.20
2018-08-14T22:59:25.230Z,20.20
2018-08-14T23:01:54.140Z,20.10
2018-08-14T23:04:23.144Z,20.00
2018-08-14T23:06:52.117Z,20.10
2018-08-14T23:09:21.001Z,20.10
2018-08-14T23:11:49.876Z,20.00
2018-08-14T23:14:18.775Z,20.00
2018-08-14T23:16:47.616Z,20.00
2018-08-14T23:19:16.604Z,20.00
2018-08-14T23:21:45.478Z,19.90
2018-08-14T23:24:14.495Z,19.90
2018-08-14T23:26:43.359Z,19.90
2018-08-14T23:29:12.241Z,19.90
2018-08-14T23:31:41.975Z,19.90
2018-08-14T23:34:10.857Z,19.90
2018-08-14T23:36:39.715Z,19.90
2018-08-14T23:39:11.087Z,19.80
2018-08-14T23:41:40.938Z,19.80
2018-08-14T23:44:09.790Z,19.80
2018-08-14T23:46:38.657Z,19.80
2018-08-14T23:49:07.570Z,19.80
2018-08-14T23:51:36.509Z,19.80
2018-08-14T23:54:05.875Z,19.80
2018-08-14T23:56:34.766Z,19.80
2018-08-14T23:59:04.509Z,19.70
